createdAt,value
2023-05-14T00:02:22.603Z,11.19
2023-05-14T00:05:08.989Z,11.20
2023-05-14T00:07:54.645Z,11.19
2023-05-14T00:10:40.288Z,11.20
2023-05-14T00:13:26.373Z,11.20
2023-05-14T00:16:12.337Z,11.19
2023-05-14T00:18:58.219Z,11.18
2023-05-14T00:21:43.540Z,11.18
2023-05-14T00:24:29.087Z,11.19
2023-05-14T00:27:14.836Z,11.18
2023-05-14T00:30:00.526Z,11.17
2023-05-14T00:32:45.967Z,11.16
2023-05-14T00:35:31.972Z,11.16
2023-05-14T00:38:19.524Z,11.14
2023-05-14T00:41:05.152Z,11.13
2023-05-14T00:43:51.346Z,11.13
2023-05-14T00:46:36.991Z,11.13
2023-05-14T00:49:22.706Z,11.12
2023-05-14T00:52:08.780Z,11.11
2023-05-14T00:54:55.011Z,11.11
2023-05-14T00:57:40.707Z,11.09
2023-05-14T01:00:26.373Z,11.06
2023-05-14T01:03:12.153Z,11.08
2023-05-14T01:06:45.921Z,11.07
2023-05-14T01:09:50.215Z,11.07
2023-05-14T01:13:00.260Z,11.06
2023-05-14T01:15:47.563Z,11.07
2023-05-14T01:18:33.172Z,11.06
2023-05-14T01:21:34.992Z,11.06
2023-05-14T01:24:20.523Z,11.06
2023-05-14T01:27:21.238Z,11.06
2023-05-14T01:30:22.024Z,11.06
2023-05-14T01:33:13.240Z,11.07
2023-05-14T01:36:00.773Z,11.06
2023-05-14T01:38:49.100Z,11.06
2023-05-14T01:41:34.657Z,11.05
2023-05-14T01:44:20.322Z,11.04
2023-05-14T01:47:06.212Z,11.05
2023-05-14T01:49:51.785Z,11.04
2023-05-14T01:52:37.326Z,11.02
2023-05-14T01:55:24.555Z,11.01
2023-05-14T01:58:10.250Z,11.01
2023-05-14T02:00:55.594Z,11.00
2023-05-14T02:03:40.906Z,10.99
2023-05-14T02:06:26.146Z,10.98
2023-05-14T02:09:14.241Z,10.96
2023-05-14T02:11:59.948Z,10.96
2023-05-14T02:14:46.032Z,10.96
2023-05-14T02:17:31.356Z,10.96
2023-05-14T02:20:16.693Z,10.94
2023-05-14T02:23:02.014Z,10.95
2023-05-14T02:25:47.565Z,10.96
2023-05-14T02:28:32.896Z,10.93
2023-05-14T02:31:19.529Z,10.95
2023-05-14T02:34:06.838Z,10.95
2023-05-14T02:36:52.464Z,10.95
2023-05-14T02:39:38.235Z,10.95
2023-05-14T02:42:25.206Z,10.94
2023-05-14T02:45:10.843Z,10.93
2023-05-14T02:47:56.405Z,10.93
2023-05-14T02:50:41.841Z,10.91
2023-05-14T02:53:27.294Z,10.90
2023-05-14T02:56:12.716Z,10.89
2023-05-14T02:58:58.125Z,10.88
2023-05-14T03:01:44.167Z,10.88
2023-05-14T03:04:30.053Z,10.86
2023-05-14T03:07:15.623Z,10.86
2023-05-14T03:10:01.112Z,10.86
2023-05-14T03:12:47.359Z,10.84
2023-05-14T03:15:33.151Z,10.83
2023-05-14T03:18:18.423Z,10.83
2023-05-14T03:21:05.090Z,10.81
2023-05-14T03:23:52.195Z,10.80
2023-05-14T03:26:38.106Z,10.80
2023-05-14T03:29:23.438Z,10.79
2023-05-14T03:32:08.789Z,10.80
2023-05-14T03:34:54.081Z,10.79
2023-05-14T03:37:41.018Z,10.79
2023-05-14T03:40:26.534Z,10.78
2023-05-14T03:43:12.292Z,10.78
2023-05-14T03:45:58.524Z,10.76
2023-05-14T03:48:44.079Z,10.76
2023-05-14T03:51:32.677Z,10.76
2023-05-14T03:54:18.516Z,10.76
2023-05-14T03:57:04.307Z,10.75
2023-05-14T03:59:50.178Z,10.75
2023-05-14T04:02:35.645Z,10.74
2023-05-14T04:05:21.548Z,10.74
2023-05-14T04:08:07.427Z,10.74
2023-05-14T04:10:52.773Z,10.74
2023-05-14T04:13:38.029Z,10.74
2023-05-14T04:16:23.756Z,10.74
2023-05-14T04:19:09.279Z,10.74
2023-05-14T04:21:54.670Z,10.75
2023-05-14T04:24:40.185Z,10.75
2023-05-14T04:27:26.032Z,10.75
2023-05-14T04:30:11.823Z,10.76
2023-05-14T04:32:57.490Z,10.78
2023-05-14T04:35:45.394Z,10.78
2023-05-14T04:38:32.045Z,10.79
2023-05-14T04:41:17.425Z,10.80
2023-05-14T04:44:03.198Z,10.81
2023-05-14T04:46:49.117Z,10.81
2023-05-14T04:49:34.659Z,10.82
2023-05-14T04:52:20.094Z,10.84
2023-05-14T04:55:06.440Z,10.86
2023-05-14T04:57:52.066Z,10.86
2023-05-14T05:00:37.678Z,10.85
2023-05-14T05:03:23.091Z,10.87
2023-05-14T05:06:08.868Z,10.86
2023-05-14T05:08:56.027Z,10.89
2023-05-14T05:11:41.781Z,10.90
2023-05-14T05:14:27.453Z,10.90
2023-05-14T05:17:13.136Z,10.91
2023-05-14T05:19:58.337Z,10.91
2023-05-14T05:22:43.703Z,10.91
2023-05-14T05:25:29.478Z,10.91
2023-05-14T05:28:15.023Z,10.94
2023-05-14T05:31:00.417Z,10.96
2023-05-14T05:33:46.039Z,10.97
2023-05-14T05:36:32.083Z,10.99
2023-05-14T05:39:17.606Z,11.00
2023-05-14T05:42:02.977Z,11.03
2023-05-14T05:44:48.410Z,11.04
2023-05-14T05:47:34.147Z,11.07
2023-05-14T05:50:20.091Z,11.08
2023-05-14T05:53:05.640Z,11.11
2023-05-14T05:55:53.951Z,11.12
2023-05-14T05:58:40.545Z,11.15
2023-05-14T06:01:26.746Z,11.18
2023-05-14T06:04:11.838Z,11.21
2023-05-14T06:06:57.363Z,11.23
2023-05-14T06:09:42.778Z,11.27
2023-05-14T06:12:30.183Z,11.30
2023-05-14T06:15:15.871Z,11.34
2023-05-14T06:18:01.391Z,11.38
2023-05-14T06:20:46.792Z,11.42
2023-05-14T06:23:32.410Z,11.44
2023-05-14T06:26:18.556Z,11.48
2023-05-14T06:29:04.593Z,11.52
2023-05-14T06:31:50.473Z,11.58
2023-05-14T06:34:36.220Z,11.63
2023-05-14T06:37:21.637Z,11.66
2023-05-14T06:40:07.679Z,11.68
2023-05-14T06:42:52.958Z,11.69
2023-05-14T06:45:38.525Z,11.68
2023-05-14T06:48:24.177Z,11.68
2023-05-14T06:51:11.171Z,11.68
2023-05-14T06:53:56.495Z,11.68
2023-05-14T06:56:42.029Z,11.69
2023-05-14T06:59:27.821Z,11.71
2023-05-14T07:02:13.197Z,11.72
2023-05-14T07:04:58.815Z,11.73
2023-05-14T07:07:44.126Z,11.75
2023-05-14T07:10:31.026Z,11.77
2023-05-14T07:13:16.571Z,11.78
2023-05-14T07:16:01.797Z,11.79
2023-05-14T07:18:47.265Z,11.82
2023-05-14T07:21:32.824Z,11.87
2023-05-14T07:24:18.525Z,11.91
2023-05-14T07:27:04.347Z,11.95
2023-05-14T07:29:50.981Z,11.99
2023-05-14T07:32:36.810Z,12.04
2023-05-14T07:35:23.212Z,12.08
2023-05-14T07:38:08.526Z,12.12
2023-05-14T07:40:54.569Z,12.14
2023-05-14T07:43:40.631Z,12.18
2023-05-14T07:46:26.592Z,12.20
2023-05-14T07:49:12.481Z,12.24
2023-05-14T07:51:57.927Z,12.28
2023-05-14T07:54:43.500Z,12.24
2023-05-14T07:57:28.811Z,12.25
2023-05-14T08:00:15.991Z,12.30
2023-05-14T08:03:01.847Z,12.36
2023-05-14T08:05:47.446Z,12.40
2023-05-14T08:08:33.044Z,12.43
2023-05-14T08:11:18.513Z,12.46
2023-05-14T08:14:04.189Z,12.50
2023-05-14T08:16:50.100Z,12.55
2023-05-14T08:19:35.779Z,12.58
2023-05-14T08:22:21.898Z,12.59
2023-05-14T08:25:07.972Z,12.61
2023-05-14T08:27:54.312Z,12.60
2023-05-14T08:30:39.803Z,12.56
2023-05-14T08:33:25.087Z,12.56
2023-05-14T08:36:10.610Z,12.60
2023-05-14T08:38:56.276Z,12.67
2023-05-14T08:41:42.033Z,12.75
2023-05-14T08:44:43.825Z,12.82
2023-05-14T08:47:30.761Z,12.90
2023-05-14T08:50:17.506Z,13.00
2023-05-14T08:53:03.029Z,13.07
2023-05-14T08:55:50.909Z,13.14
2023-05-14T08:58:36.187Z,13.28
2023-05-14T09:01:22.130Z,13.40
2023-05-14T09:04:08.603Z,13.54
2023-05-14T09:06:55.020Z,13.69
2023-05-14T09:09:41.586Z,13.86
2023-05-14T09:12:27.274Z,13.98
2023-05-14T09:15:13.058Z,14.05
2023-05-14T09:17:58.556Z,14.18
2023-05-14T09:20:43.837Z,14.33
2023-05-14T09:23:34.511Z,14.49
2023-05-14T09:26:25.177Z,14.60
2023-05-14T09:29:11.213Z,14.75
2023-05-14T09:31:58.042Z,14.90
2023-05-14T09:34:43.584Z,15.06
2023-05-14T09:37:29.973Z,15.18
2023-05-14T09:40:16.318Z,15.23
2023-05-14T09:43:02.117Z,15.21
2023-05-14T09:45:47.563Z,15.24
2023-05-14T09:48:33.190Z,15.28
2023-05-14T09:51:18.908Z,15.33
2023-05-14T09:54:05.001Z,15.36
2023-05-14T09:56:51.038Z,15.36
2023-05-14T09:59:36.496Z,15.46
2023-05-14T10:02:27.478Z,15.57
2023-05-14T10:05:13.395Z,15.67
2023-05-14T10:08:01.040Z,15.68
2023-05-14T10:10:46.569Z,15.70
2023-05-14T10:13:39.452Z,15.72
2023-05-14T10:16:38.006Z,15.75
2023-05-14T10:19:24.758Z,15.70
2023-05-14T10:22:12.740Z,15.72
2023-05-14T10:24:58.659Z,15.73
2023-05-14T10:27:44.706Z,15.72
2023-05-14T10:30:31.897Z,15.77
2023-05-14T10:33:18.716Z,15.75
2023-05-14T10:36:06.276Z,15.68
2023-05-14T10:38:57.090Z,15.69
2023-05-14T10:41:43.003Z,15.69
2023-05-14T10:44:29.086Z,15.67
2023-05-14T10:47:17.417Z,15.57
2023-05-14T10:50:05.748Z,15.50
2023-05-14T10:52:52.163Z,15.46
2023-05-14T10:55:38.702Z,15.43
2023-05-14T10:58:24.187Z,15.43
2023-05-14T11:01:11.713Z,15.47
2023-05-14T11:03:58.573Z,15.49
2023-05-14T11:06:46.893Z,15.47
2023-05-14T11:09:32.785Z,15.45
2023-05-14T11:12:18.910Z,15.46
2023-05-14T11:15:07.289Z,15.49
2023-05-14T11:17:54.177Z,15.49
2023-05-14T11:20:39.539Z,15.46
2023-05-14T11:23:27.854Z,15.38
2023-05-14T11:26:13.866Z,15.34
2023-05-14T11:28:59.348Z,15.34
2023-05-14T11:31:44.930Z,15.37
2023-05-14T11:34:30.503Z,15.40
2023-05-14T11:37:16.997Z,15.46
2023-05-14T11:40:02.702Z,15.49
2023-05-14T11:42:51.785Z,15.48
2023-05-14T11:45:37.868Z,15.51
2023-05-14T11:48:24.198Z,15.51
2023-05-14T11:51:09.978Z,15.52
2023-05-14T11:53:55.428Z,15.54
2023-05-14T11:56:40.781Z,15.61
2023-05-14T11:59:28.153Z,15.67
2023-05-14T12:02:17.472Z,15.68
2023-05-14T12:05:03.141Z,15.66
2023-05-14T12:07:48.890Z,15.68
2023-05-14T12:10:42.545Z,15.73
2023-05-14T12:13:30.117Z,15.84
2023-05-14T12:16:17.651Z,15.91
2023-05-14T12:19:03.580Z,15.98
2023-05-14T12:21:51.048Z,16.04
2023-05-14T12:24:36.922Z,16.08
2023-05-14T12:27:27.743Z,16.09
2023-05-14T12:33:03.346Z,16.06
2023-05-14T12:35:48.833Z,16.06
2023-05-14T12:38:34.264Z,16.04
2023-05-14T12:41:19.777Z,16.03
2023-05-14T12:44:05.456Z,16.00
2023-05-14T12:46:51.308Z,15.99
2023-05-14T12:49:37.263Z,16.05
2023-05-14T12:52:36.636Z,16.12
2023-05-14T12:55:24.515Z,16.15
2023-05-14T12:58:10.072Z,16.14
2023-05-14T13:00:55.430Z,16.14
2023-05-14T13:03:40.688Z,16.16
2023-05-14T13:06:26.232Z,16.15
2023-05-14T13:09:11.701Z,16.13
2023-05-14T13:11:57.081Z,16.12
2023-05-14T13:14:42.620Z,16.24
2023-05-14T13:17:27.982Z,16.41
2023-05-14T13:20:13.471Z,16.42
2023-05-14T13:22:58.900Z,16.36
2023-05-14T13:25:44.496Z,16.32
2023-05-14T13:28:30.106Z,16.20
2023-05-14T13:31:15.728Z,16.22
2023-05-14T13:34:02.551Z,16.20
2023-05-14T13:36:49.921Z,16.19
2023-05-14T13:39:34.961Z,16.05
2023-05-14T13:42:20.524Z,15.94
2023-05-14T13:45:06.583Z,15.93
2023-05-14T13:47:52.708Z,15.96
2023-05-14T13:50:38.180Z,15.87
2023-05-14T13:53:24.802Z,15.72
2023-05-14T13:56:10.207Z,15.60
2023-05-14T13:58:55.851Z,15.45
2023-05-14T14:01:43.258Z,15.36
2023-05-14T14:04:29.264Z,15.32
2023-05-14T14:07:14.558Z,15.31
2023-05-14T14:10:01.666Z,15.36
2023-05-14T14:12:47.748Z,15.43
2023-05-14T14:15:33.168Z,15.49
2023-05-14T14:18:18.545Z,15.47
2023-05-14T14:21:04.634Z,15.40
2023-05-14T14:23:49.958Z,15.33
2023-05-14T14:26:35.640Z,15.30
2023-05-14T14:29:23.795Z,15.33
2023-05-14T14:32:09.460Z,15.37
2023-05-14T14:34:54.832Z,15.37
2023-05-14T14:37:41.343Z,15.34
2023-05-14T14:40:27.178Z,15.35
2023-05-14T14:43:12.732Z,15.37
2023-05-14T14:45:58.251Z,15.51
2023-05-14T14:48:44.074Z,15.69
2023-05-14T14:51:30.372Z,15.79
2023-05-14T14:54:15.862Z,15.84
2023-05-14T14:57:01.237Z,15.85
2023-05-14T14:59:47.151Z,16.10
2023-05-14T15:02:32.653Z,16.13
2023-05-14T15:05:17.861Z,16.46
2023-05-14T15:08:04.149Z,16.87
2023-05-14T15:10:49.856Z,16.91
2023-05-14T15:13:35.282Z,17.07
2023-05-14T15:16:20.798Z,17.13
2023-05-14T15:19:06.037Z,16.99
2023-05-14T15:21:52.007Z,16.83
2023-05-14T15:24:37.514Z,16.71
2023-05-14T15:27:23.209Z,16.69
2023-05-14T15:30:09.155Z,16.87
2023-05-14T15:32:55.768Z,16.85
2023-05-14T15:35:41.153Z,16.81
2023-05-14T15:38:26.913Z,16.56
2023-05-14T15:41:12.163Z,16.49
2023-05-14T15:43:58.850Z,16.42
2023-05-14T15:46:44.646Z,16.31
2023-05-14T15:49:30.350Z,16.22
2023-05-14T15:52:15.893Z,16.12
2023-05-14T15:55:01.553Z,16.12
2023-05-14T15:57:47.831Z,16.11
2023-05-14T16:00:33.201Z,16.10
2023-05-14T16:03:18.521Z,16.03
2023-05-14T16:06:04.221Z,16.04
2023-05-14T16:08:49.983Z,16.04
2023-05-14T16:11:35.774Z,15.97
2023-05-14T16:14:22.696Z,15.83
2023-05-14T16:17:08.623Z,15.76
2023-05-14T16:19:56.247Z,15.65
2023-05-14T16:22:42.548Z,15.56
2023-05-14T16:25:30.151Z,15.49
2023-05-14T16:28:15.795Z,15.47
2023-05-14T16:31:03.583Z,15.38
2023-05-14T16:33:49.195Z,15.31
2023-05-14T16:36:34.929Z,15.18
2023-05-14T16:39:20.750Z,15.08
2023-05-14T16:42:06.500Z,15.02
2023-05-14T16:44:52.156Z,14.93
2023-05-14T16:47:37.767Z,14.85
2023-05-14T16:50:23.610Z,14.74
2023-05-14T16:53:09.718Z,14.64
2023-05-14T16:55:55.127Z,14.56
2023-05-14T16:58:40.859Z,14.40
2023-05-14T17:01:26.854Z,14.35
2023-05-14T17:04:12.253Z,14.29
2023-05-14T17:06:57.602Z,14.26
2023-05-14T17:09:42.770Z,14.27
2023-05-14T17:12:28.386Z,14.23
2023-05-14T17:15:13.789Z,14.19
2023-05-14T17:17:59.399Z,14.14
2023-05-14T17:20:44.736Z,14.13
2023-05-14T17:23:30.418Z,14.04
2023-05-14T17:26:16.460Z,14.02
2023-05-14T17:29:02.396Z,13.95
2023-05-14T17:31:48.719Z,13.88
2023-05-14T17:34:34.301Z,13.80
2023-05-14T17:37:21.128Z,13.74
2023-05-14T17:40:07.595Z,13.69
2023-05-14T17:42:53.522Z,13.52
2023-05-14T17:45:52.434Z,13.45
2023-05-14T17:48:38.597Z,13.37
2023-05-14T17:51:24.009Z,13.30
2023-05-14T17:54:09.151Z,13.30
2023-05-14T17:56:54.695Z,13.30
2023-05-14T17:59:40.521Z,13.27
2023-05-14T18:02:26.152Z,13.20
2023-05-14T18:05:11.621Z,13.14
2023-05-14T18:07:58.564Z,13.04
2023-05-14T18:10:44.200Z,12.97
2023-05-14T18:13:29.892Z,12.92
2023-05-14T18:16:15.713Z,12.90
2023-05-14T18:29:30.523Z,12.68
2023-05-14T18:32:16.557Z,12.64
2023-05-14T18:35:02.692Z,12.57
2023-05-14T18:37:48.096Z,12.51
2023-05-14T18:40:33.791Z,12.48
2023-05-14T18:43:19.792Z,12.43
2023-05-14T18:46:05.572Z,12.38
2023-05-14T18:48:51.326Z,12.33
2023-05-14T18:51:36.943Z,12.28
2023-05-14T18:54:22.189Z,12.25
2023-05-14T18:57:08.176Z,12.20
2023-05-14T18:59:53.499Z,12.15
2023-05-14T19:02:39.034Z,12.09
2023-05-14T19:05:24.960Z,12.05
2023-05-14T19:08:10.662Z,12.03
2023-05-14T19:10:56.180Z,11.99
2023-05-14T19:13:41.745Z,11.96
2023-05-14T19:16:27.274Z,11.94
2023-05-14T19:19:13.461Z,11.92
2023-05-14T19:21:58.878Z,11.88
2023-05-14T19:24:44.354Z,11.85
2023-05-14T19:27:29.841Z,11.83
2023-05-14T19:30:15.356Z,11.79
2023-05-14T19:33:00.706Z,11.75
2023-05-14T19:35:46.627Z,11.69
2023-05-14T19:38:32.456Z,11.68
2023-05-14T19:41:18.155Z,11.64
2023-05-14T19:44:03.813Z,11.63
2023-05-14T19:46:49.341Z,11.60
2023-05-14T19:49:35.092Z,11.58
2023-05-14T19:52:20.671Z,11.54
2023-05-14T19:55:06.347Z,11.50
2023-05-14T19:57:51.983Z,11.46
2023-05-14T20:00:37.666Z,11.43
2023-05-14T20:03:27.350Z,11.39
2023-05-14T20:06:12.993Z,11.36
2023-05-14T20:08:59.148Z,11.32
2023-05-14T20:11:44.466Z,11.29
2023-05-14T20:14:29.967Z,11.27
2023-05-14T20:17:15.464Z,11.27
2023-05-14T20:20:01.673Z,11.25
2023-05-14T20:22:47.263Z,11.23
2023-05-14T20:25:33.461Z,11.21
2023-05-14T20:28:18.970Z,11.19
2023-05-14T20:31:04.553Z,11.16
2023-05-14T20:33:50.729Z,11.13
2023-05-14T20:36:37.584Z,11.12
2023-05-14T20:39:23.521Z,11.06
2023-05-14T20:42:09.445Z,11.02
2023-05-14T20:44:55.503Z,11.00
2023-05-14T20:47:41.127Z,10.96
2023-05-14T20:50:27.870Z,10.91
2023-05-14T20:53:13.400Z,10.88
2023-05-14T20:55:59.643Z,10.83
2023-05-14T20:58:45.931Z,10.78
2023-05-14T21:01:31.105Z,10.70
2023-05-14T21:04:16.780Z,10.61
2023-05-14T21:07:02.885Z,10.52
2023-05-14T21:09:52.600Z,10.39
2023-05-14T21:12:38.301Z,10.27
2023-05-14T21:15:24.034Z,10.22
2023-05-14T21:18:09.894Z,10.19
2023-05-14T21:20:55.384Z,10.17
2023-05-14T21:23:40.648Z,10.14
2023-05-14T21:26:26.513Z,10.12
2023-05-14T21:29:11.913Z,10.09
2023-05-14T21:31:57.412Z,10.06
2023-05-14T21:34:43.280Z,9.97
2023-05-14T21:37:28.772Z,9.93
2023-05-14T21:40:14.251Z,9.91
2023-05-14T21:42:59.787Z,9.91
2023-05-14T21:45:47.088Z,9.89
2023-05-14T21:48:32.537Z,9.88
2023-05-14T21:51:18.370Z,9.87
2023-05-14T21:54:03.889Z,9.86
2023-05-14T21:56:49.436Z,9.84
2023-05-14T21:59:35.568Z,9.84
2023-05-14T22:02:21.349Z,9.82
2023-05-14T22:05:07.451Z,9.79
2023-05-14T22:07:53.303Z,9.76
2023-05-14T22:10:38.784Z,9.75
2023-05-14T22:13:24.081Z,9.76
2023-05-14T22:16:13.662Z,9.75
2023-05-14T22:18:59.880Z,9.75
2023-05-14T22:21:45.437Z,9.72
2023-05-14T22:24:31.201Z,9.70
2023-05-14T22:27:17.675Z,9.69
2023-05-14T22:30:02.971Z,9.68
2023-05-14T22:32:48.354Z,9.66
2023-05-14T22:35:33.539Z,9.63
2023-05-14T22:38:20.172Z,9.62
2023-05-14T22:41:05.540Z,9.59
2023-05-14T22:43:51.081Z,9.56
2023-05-14T22:46:36.386Z,9.57
2023-05-14T22:49:21.804Z,9.56
2023-05-14T22:52:07.282Z,9.55
2023-05-14T22:54:53.281Z,9.54
2023-05-14T22:57:38.803Z,9.54
2023-05-14T23:00:25.214Z,9.52
2023-05-14T23:03:11.004Z,9.52
2023-05-14T23:05:56.590Z,9.52
2023-05-14T23:08:42.133Z,9.51
2023-05-14T23:11:27.849Z,9.51
2023-05-14T23:14:13.393Z,9.53
2023-05-14T23:16:59.151Z,9.51
2023-05-14T23:19:44.823Z,9.50
2023-05-14T23:22:30.324Z,9.50
2023-05-14T23:25:15.756Z,9.50
2023-05-14T23:28:01.257Z,9.50
2023-05-14T23:30:46.546Z,9.48
2023-05-14T23:33:32.091Z,9.49
2023-05-14T23:36:17.643Z,9.49
2023-05-14T23:39:03.232Z,9.50
2023-05-14T23:41:48.623Z,9.50
2023-05-14T23:44:34.194Z,9.49
2023-05-14T23:47:19.489Z,9.47
2023-05-14T23:50:06.773Z,9.45
2023-05-14T23:52:53.680Z,9.46
2023-05-14T23:55:39.783Z,9.48
2023-05-14T23:58:25.432Z,9.48
